Bishop, Illinois
Current Conditions -  °F | °C
As of 6:54 AM on Monday 22 Dec 2014 (Local Time) from KPIA Reporting Station
Overcast Overcast  
Wind Chill: -1°   Ceiling: 4600
Heat Index:   Visibility: 9mi
Dew Point: -1°   Wind: 9mph
Humidity: 76%   Direction: 120°ESE
Pressure: 29.84"   Gusts: NA
Location:  40.3389°N, 89.8274°W
Report Text: KPIA 221254Z 12008KT 9SM OVC046 03/M01 A2984 RMK AO2 SLP108 T00281011
Loading
Personal Weather Stations






























Interactive Weather Map New forecast layout! Learn more

10-Day Weather Forecast

Advertisements
Track Severe Weather on mobile